sensor_id;sensor_type;location;lat;lon;timestamp;P1;durP1;ratioP1;P2;durP2;ratioP2
20411;SDS011;10365;52.578;8.138;2023-03-03T00:00:59;71.93;;;23.17;;
20411;SDS011;10365;52.578;8.138;2023-03-03T00:03:25;73.20;;;21.77;;
20411;SDS011;10365;52.578;8.138;2023-03-03T00:05:51;65.40;;;21.27;;
20411;SDS011;10365;52.578;8.138;2023-03-03T00:08:17;67.32;;;21.50;;
20411;SDS011;10365;52.578;8.138;2023-03-03T00:10:43;59.05;;;20.08;;
20411;SDS011;10365;52.578;8.138;2023-03-03T00:13:16;56.47;;;19.52;;
20411;SDS011;10365;52.578;8.138;2023-03-03T00:15:42;73.63;;;23.67;;
20411;SDS011;10365;52.578;8.138;2023-03-03T00:18:18;71.80;;;23.65;;
20411;SDS011;10365;52.578;8.138;2023-03-03T00:20:56;68.70;;;20.65;;
20411;SDS011;10365;52.578;8.138;2023-03-03T00:23:25;59.50;;;21.50;;
20411;SDS011;10365;52.578;8.138;2023-03-03T00:25:52;67.22;;;22.70;;
20411;SDS011;10365;52.578;8.138;2023-03-03T00:28:22;69.63;;;22.45;;
20411;SDS011;10365;52.578;8.138;2023-03-03T00:30:49;74.95;;;22.45;;
20411;SDS011;10365;52.578;8.138;2023-03-03T00:33:25;72.15;;;22.52;;
20411;SDS011;10365;52.578;8.138;2023-03-03T00:36:39;78.15;;;23.33;;
20411;SDS011;10365;52.578;8.138;2023-03-03T00:38:40;76.13;;;23.83;;
20411;SDS011;10365;52.578;8.138;2023-03-03T00:41:25;77.88;;;23.85;;
20411;SDS011;10365;52.578;8.138;2023-03-03T00:43:51;71.32;;;23.17;;
20411;SDS011;10365;52.578;8.138;2023-03-03T00:46:18;65.95;;;22.30;;
20411;SDS011;10365;52.578;8.138;2023-03-03T00:48:44;60.47;;;21.17;;
20411;SDS011;10365;52.578;8.138;2023-03-03T00:53:46;55.38;;;18.27;;
20411;SDS011;10365;52.578;8.138;2023-03-03T00:56:12;54.90;;;19.52;;
20411;SDS011;10365;52.578;8.138;2023-03-03T00:58:37;60.10;;;19.38;;
20411;SDS011;10365;52.578;8.138;2023-03-03T01:01:03;53.70;;;20.23;;
20411;SDS011;10365;52.578;8.138;2023-03-03T01:03:38;59.80;;;18.90;;
20411;SDS011;10365;52.578;8.138;2023-03-03T01:06:03;51.70;;;18.13;;
20411;SDS011;10365;52.578;8.138;2023-03-03T01:08:51;44.65;;;17.38;;
20411;SDS011;10365;52.578;8.138;2023-03-03T01:11:19;59.28;;;19.33;;
20411;SDS011;10365;52.578;8.138;2023-03-03T01:13:46;47.33;;;17.00;;
20411;SDS011;10365;52.578;8.138;2023-03-03T01:16:12;56.30;;;18.15;;
20411;SDS011;10365;52.578;8.138;2023-03-03T01:18:37;48.92;;;16.45;;
20411;SDS011;10365;52.578;8.138;2023-03-03T01:21:05;60.80;;;19.55;;
20411;SDS011;10365;52.578;8.138;2023-03-03T01:23:31;55.38;;;19.58;;
20411;SDS011;10365;52.578;8.138;2023-03-03T01:25:56;62.78;;;20.95;;
20411;SDS011;10365;52.578;8.138;2023-03-03T01:28:22;49.40;;;17.27;;
20411;SDS011;10365;52.578;8.138;2023-03-03T01:30:47;48.75;;;17.85;;
20411;SDS011;10365;52.578;8.138;2023-03-03T01:33:13;52.65;;;17.85;;
20411;SDS011;10365;52.578;8.138;2023-03-03T01:35:42;47.53;;;18.50;;
20411;SDS011;10365;52.578;8.138;2023-03-03T01:38:07;57.90;;;17.98;;
20411;SDS011;10365;52.578;8.138;2023-03-03T01:40:33;54.05;;;18.35;;
20411;SDS011;10365;52.578;8.138;2023-03-03T01:42:58;52.78;;;18.08;;
20411;SDS011;10365;52.578;8.138;2023-03-03T01:45:25;55.90;;;19.05;;
20411;SDS011;10365;52.578;8.138;2023-03-03T01:47:52;48.00;;;17.98;;
20411;SDS011;10365;52.578;8.138;2023-03-03T01:50:29;52.95;;;17.85;;
20411;SDS011;10365;52.578;8.138;2023-03-03T01:52:58;49.53;;;17.27;;
20411;SDS011;10365;52.578;8.138;2023-03-03T01:55:31;50.22;;;18.38;;
20411;SDS011;10365;52.578;8.138;2023-03-03T01:57:59;50.13;;;16.73;;
20411;SDS011;10365;52.578;8.138;2023-03-03T02:00:25;52.35;;;18.30;;
20411;SDS011;10365;52.578;8.138;2023-03-03T02:02:51;52.15;;;18.30;;
20411;SDS011;10365;52.578;8.138;2023-03-03T02:05:17;54.97;;;19.80;;
20411;SDS011;10365;52.578;8.138;2023-03-03T02:07:43;52.17;;;19.05;;
20411;SDS011;10365;52.578;8.138;2023-03-03T02:10:11;50.63;;;18.38;;
20411;SDS011;10365;52.578;8.138;2023-03-03T02:12:39;47.72;;;18.10;;
20411;SDS011;10365;52.578;8.138;2023-03-03T02:15:38;53.30;;;19.13;;
20411;SDS011;10365;52.578;8.138;2023-03-03T02:17:58;48.60;;;18.50;;
20411;SDS011;10365;52.578;8.138;2023-03-03T02:23:03;54.88;;;19.98;;
20411;SDS011;10365;52.578;8.138;2023-03-03T02:28:29;57.40;;;20.80;;
20411;SDS011;10365;52.578;8.138;2023-03-03T02:30:56;55.47;;;19.58;;
20411;SDS011;10365;52.578;8.138;2023-03-03T02:33:23;55.35;;;20.20;;
20411;SDS011;10365;52.578;8.138;2023-03-03T02:35:48;45.83;;;17.98;;
20411;SDS011;10365;52.578;8.138;2023-03-03T02:41:45;42.63;;;16.25;;
20411;SDS011;10365;52.578;8.138;2023-03-03T02:44:06;45.22;;;16.10;;
20411;SDS011;10365;52.578;8.138;2023-03-03T02:46:34;48.58;;;15.80;;
20411;SDS011;10365;52.578;8.138;2023-03-03T02:49:04;49.58;;;16.23;;
20411;SDS011;10365;52.578;8.138;2023-03-03T02:51:30;41.70;;;15.43;;
20411;SDS011;10365;52.578;8.138;2023-03-03T02:53:55;37.80;;;14.77;;
20411;SDS011;10365;52.578;8.138;2023-03-03T02:56:22;43.03;;;16.30;;
20411;SDS011;10365;52.578;8.138;2023-03-03T02:58:47;38.47;;;15.57;;
20411;SDS011;10365;52.578;8.138;2023-03-03T03:01:13;41.13;;;16.02;;
20411;SDS011;10365;52.578;8.138;2023-03-03T03:03:39;41.38;;;15.30;;
20411;SDS011;10365;52.578;8.138;2023-03-03T03:06:06;37.28;;;15.98;;
20411;SDS011;10365;52.578;8.138;2023-03-03T03:08:32;40.55;;;15.82;;
20411;SDS011;10365;52.578;8.138;2023-03-03T03:10:59;38.88;;;15.27;;
20411;SDS011;10365;52.578;8.138;2023-03-03T03:13:25;44.92;;;15.50;;
20411;SDS011;10365;52.578;8.138;2023-03-03T03:15:51;43.97;;;17.60;;
20411;SDS011;10365;52.578;8.138;2023-03-03T03:18:17;42.30;;;17.25;;
20411;SDS011;10365;52.578;8.138;2023-03-03T03:20:43;42.63;;;17.50;;
20411;SDS011;10365;52.578;8.138;2023-03-03T03:23:09;39.90;;;17.30;;
20411;SDS011;10365;52.578;8.138;2023-03-03T03:25:35;43.05;;;16.65;;
20411;SDS011;10365;52.578;8.138;2023-03-03T03:28:07;37.22;;;14.80;;
20411;SDS011;10365;52.578;8.138;2023-03-03T03:30:34;37.00;;;15.93;;
20411;SDS011;10365;52.578;8.138;2023-03-03T03:33:00;40.45;;;16.90;;
20411;SDS011;10365;52.578;8.138;2023-03-03T03:35:26;48.45;;;18.83;;
20411;SDS011;10365;52.578;8.138;2023-03-03T03:37:51;39.42;;;17.52;;
20411;SDS011;10365;52.578;8.138;2023-03-03T03:40:17;43.67;;;18.27;;
20411;SDS011;10365;52.578;8.138;2023-03-03T03:42:43;42.88;;;16.83;;
20411;SDS011;10365;52.578;8.138;2023-03-03T03:45:08;37.10;;;16.92;;
20411;SDS011;10365;52.578;8.138;2023-03-03T03:47:35;39.28;;;17.10;;
20411;SDS011;10365;52.578;8.138;2023-03-03T03:50:00;39.38;;;16.77;;
20411;SDS011;10365;52.578;8.138;2023-03-03T03:52:25;38.60;;;16.27;;
20411;SDS011;10365;52.578;8.138;2023-03-03T03:54:51;42.05;;;16.52;;
20411;SDS011;10365;52.578;8.138;2023-03-03T03:57:17;44.00;;;16.58;;
20411;SDS011;10365;52.578;8.138;2023-03-03T03:59:42;40.33;;;15.68;;
20411;SDS011;10365;52.578;8.138;2023-03-03T04:02:08;47.10;;;17.48;;
20411;SDS011;10365;52.578;8.138;2023-03-03T04:04:33;45.22;;;16.98;;
20411;SDS011;10365;52.578;8.138;2023-03-03T04:06:59;48.95;;;17.85;;
20411;SDS011;10365;52.578;8.138;2023-03-03T04:09:25;46.13;;;18.77;;
20411;SDS011;10365;52.578;8.138;2023-03-03T04:11:53;42.13;;;18.15;;
20411;SDS011;10365;52.578;8.138;2023-03-03T04:14:18;47.97;;;18.08;;
20411;SDS011;10365;52.578;8.138;2023-03-03T04:16:44;42.38;;;17.58;;
20411;SDS011;10365;52.578;8.138;2023-03-03T04:19:09;40.15;;;17.05;;
20411;SDS011;10365;52.578;8.138;2023-03-03T04:21:36;53.17;;;18.10;;
20411;SDS011;10365;52.578;8.138;2023-03-03T04:24:02;51.70;;;18.23;;
20411;SDS011;10365;52.578;8.138;2023-03-03T04:26:28;47.38;;;19.10;;
20411;SDS011;10365;52.578;8.138;2023-03-03T04:28:56;45.70;;;17.15;;
20411;SDS011;10365;52.578;8.138;2023-03-03T04:31:23;50.38;;;18.20;;
20411;SDS011;10365;52.578;8.138;2023-03-03T04:33:50;47.22;;;18.98;;
20411;SDS011;10365;52.578;8.138;2023-03-03T04:36:18;53.25;;;19.02;;
20411;SDS011;10365;52.578;8.138;2023-03-03T04:38:44;51.58;;;18.42;;
20411;SDS011;10365;52.578;8.138;2023-03-03T04:41:09;54.80;;;19.88;;
20411;SDS011;10365;52.578;8.138;2023-03-03T04:43:37;67.95;;;21.65;;
20411;SDS011;10365;52.578;8.138;2023-03-03T04:46:03;71.78;;;22.15;;
20411;SDS011;10365;52.578;8.138;2023-03-03T04:48:29;72.85;;;21.23;;
20411;SDS011;10365;52.578;8.138;2023-03-03T04:50:55;67.53;;;22.50;;
20411;SDS011;10365;52.578;8.138;2023-03-03T04:53:20;86.70;;;23.08;;
20411;SDS011;10365;52.578;8.138;2023-03-03T04:55:48;78.55;;;23.30;;
20411;SDS011;10365;52.578;8.138;2023-03-03T04:58:13;84.22;;;25.30;;
20411;SDS011;10365;52.578;8.138;2023-03-03T05:00:40;92.85;;;25.58;;
20411;SDS011;10365;52.578;8.138;2023-03-03T05:03:07;86.18;;;25.95;;
20411;SDS011;10365;52.578;8.138;2023-03-03T05:05:34;80.97;;;25.73;;
20411;SDS011;10365;52.578;8.138;2023-03-03T05:07:59;88.22;;;25.65;;
20411;SDS011;10365;52.578;8.138;2023-03-03T05:10:25;86.95;;;25.10;;
20411;SDS011;10365;52.578;8.138;2023-03-03T05:12:50;91.93;;;26.23;;
20411;SDS011;10365;52.578;8.138;2023-03-03T05:15:15;101.70;;;26.83;;
20411;SDS011;10365;52.578;8.138;2023-03-03T05:17:41;87.03;;;24.48;;
20411;SDS011;10365;52.578;8.138;2023-03-03T05:20:07;88.65;;;26.15;;
20411;SDS011;10365;52.578;8.138;2023-03-03T05:22:32;87.55;;;24.75;;
20411;SDS011;10365;52.578;8.138;2023-03-03T05:24:58;79.05;;;23.42;;
20411;SDS011;10365;52.578;8.138;2023-03-03T05:27:23;67.88;;;23.42;;
20411;SDS011;10365;52.578;8.138;2023-03-03T05:29:48;72.15;;;21.35;;
20411;SDS011;10365;52.578;8.138;2023-03-03T05:32:14;57.80;;;20.10;;
20411;SDS011;10365;52.578;8.138;2023-03-03T05:34:39;62.03;;;20.13;;
20411;SDS011;10365;52.578;8.138;2023-03-03T05:37:05;63.75;;;21.60;;
20411;SDS011;10365;52.578;8.138;2023-03-03T05:39:31;64.38;;;21.02;;
20411;SDS011;10365;52.578;8.138;2023-03-03T05:41:56;59.15;;;21.85;;
20411;SDS011;10365;52.578;8.138;2023-03-03T05:44:21;59.63;;;21.38;;
20411;SDS011;10365;52.578;8.138;2023-03-03T05:46:47;59.08;;;20.17;;
20411;SDS011;10365;52.578;8.138;2023-03-03T05:49:12;74.20;;;20.77;;
20411;SDS011;10365;52.578;8.138;2023-03-03T05:51:38;56.90;;;19.88;;
20411;SDS011;10365;52.578;8.138;2023-03-03T05:54:03;63.50;;;20.00;;
20411;SDS011;10365;52.578;8.138;2023-03-03T05:56:29;59.85;;;20.00;;
20411;SDS011;10365;52.578;8.138;2023-03-03T05:58:54;49.55;;;19.17;;
20411;SDS011;10365;52.578;8.138;2023-03-03T06:01:20;55.70;;;18.65;;
20411;SDS011;10365;52.578;8.138;2023-03-03T06:03:46;54.08;;;18.52;;
20411;SDS011;10365;52.578;8.138;2023-03-03T06:06:11;58.10;;;19.58;;
20411;SDS011;10365;52.578;8.138;2023-03-03T06:08:38;53.50;;;18.45;;
20411;SDS011;10365;52.578;8.138;2023-03-03T06:11:03;58.80;;;18.88;;
20411;SDS011;10365;52.578;8.138;2023-03-03T06:13:29;55.58;;;18.00;;
20411;SDS011;10365;52.578;8.138;2023-03-03T06:15:54;55.30;;;18.00;;
20411;SDS011;10365;52.578;8.138;2023-03-03T06:18:19;53.92;;;17.05;;
20411;SDS011;10365;52.578;8.138;2023-03-03T06:20:49;62.22;;;20.80;;
20411;SDS011;10365;52.578;8.138;2023-03-03T06:23:15;55.22;;;20.20;;
20411;SDS011;10365;52.578;8.138;2023-03-03T06:25:40;54.88;;;18.15;;
20411;SDS011;10365;52.578;8.138;2023-03-03T06:28:06;62.75;;;19.02;;
20411;SDS011;10365;52.578;8.138;2023-03-03T06:30:31;60.90;;;17.85;;
20411;SDS011;10365;52.578;8.138;2023-03-03T06:32:56;61.78;;;19.95;;
20411;SDS011;10365;52.578;8.138;2023-03-03T06:35:22;53.10;;;17.30;;
20411;SDS011;10365;52.578;8.138;2023-03-03T06:37:47;60.40;;;18.95;;
20411;SDS011;10365;52.578;8.138;2023-03-03T06:40:15;61.20;;;18.88;;
20411;SDS011;10365;52.578;8.138;2023-03-03T06:42:40;57.25;;;19.38;;
20411;SDS011;10365;52.578;8.138;2023-03-03T06:45:05;62.92;;;20.35;;
20411;SDS011;10365;52.578;8.138;2023-03-03T06:47:31;58.35;;;19.85;;
20411;SDS011;10365;52.578;8.138;2023-03-03T06:49:57;54.58;;;20.13;;
20411;SDS011;10365;52.578;8.138;2023-03-03T06:52:24;60.00;;;20.23;;
20411;SDS011;10365;52.578;8.138;2023-03-03T06:54:52;48.72;;;18.08;;
20411;SDS011;10365;52.578;8.138;2023-03-03T06:57:25;50.28;;;18.33;;
20411;SDS011;10365;52.578;8.138;2023-03-03T06:59:51;51.67;;;17.98;;
20411;SDS011;10365;52.578;8.138;2023-03-03T07:02:17;58.13;;;20.27;;
20411;SDS011;10365;52.578;8.138;2023-03-03T07:04:43;52.85;;;18.70;;
20411;SDS011;10365;52.578;8.138;2023-03-03T07:07:18;47.75;;;17.85;;
20411;SDS011;10365;52.578;8.138;2023-03-03T07:09:45;58.22;;;18.13;;
20411;SDS011;10365;52.578;8.138;2023-03-03T07:12:15;47.58;;;16.75;;
20411;SDS011;10365;52.578;8.138;2023-03-03T07:14:42;55.20;;;17.95;;
20411;SDS011;10365;52.578;8.138;2023-03-03T07:17:10;62.15;;;19.83;;
20411;SDS011;10365;52.578;8.138;2023-03-03T07:19:39;52.83;;;17.95;;
20411;SDS011;10365;52.578;8.138;2023-03-03T07:24:36;56.17;;;19.17;;
20411;SDS011;10365;52.578;8.138;2023-03-03T07:29:30;51.25;;;18.13;;
20411;SDS011;10365;52.578;8.138;2023-03-03T07:31:58;53.53;;;18.85;;
20411;SDS011;10365;52.578;8.138;2023-03-03T07:34:26;56.10;;;20.25;;
20411;SDS011;10365;52.578;8.138;2023-03-03T07:36:54;56.63;;;18.85;;
20411;SDS011;10365;52.578;8.138;2023-03-03T07:39:27;57.13;;;19.00;;
20411;SDS011;10365;52.578;8.138;2023-03-03T07:41:59;60.08;;;20.27;;
20411;SDS011;10365;52.578;8.138;2023-03-03T07:44:32;58.83;;;19.80;;
20411;SDS011;10365;52.578;8.138;2023-03-03T07:46:59;54.92;;;19.08;;
20411;SDS011;10365;52.578;8.138;2023-03-03T07:49:36;52.60;;;17.75;;
20411;SDS011;10365;52.578;8.138;2023-03-03T07:54:46;53.90;;;17.95;;
20411;SDS011;10365;52.578;8.138;2023-03-03T07:57:58;57.92;;;17.65;;
20411;SDS011;10365;52.578;8.138;2023-03-03T08:00:03;49.97;;;18.27;;
20411;SDS011;10365;52.578;8.138;2023-03-03T08:05:34;51.90;;;17.63;;
20411;SDS011;10365;52.578;8.138;2023-03-03T08:13:20;60.08;;;18.25;;
20411;SDS011;10365;52.578;8.138;2023-03-03T08:15:46;37.95;;;15.68;;
20411;SDS011;10365;52.578;8.138;2023-03-03T08:18:23;42.05;;;15.93;;
20411;SDS011;10365;52.578;8.138;2023-03-03T08:20:50;55.22;;;17.48;;
20411;SDS011;10365;52.578;8.138;2023-03-03T08:23:17;38.65;;;15.10;;
20411;SDS011;10365;52.578;8.138;2023-03-03T08:25:43;38.97;;;13.32;;
20411;SDS011;10365;52.578;8.138;2023-03-03T08:28:09;35.78;;;14.05;;
20411;SDS011;10365;52.578;8.138;2023-03-03T08:30:35;31.60;;;11.80;;
20411;SDS011;10365;52.578;8.138;2023-03-03T08:33:00;31.02;;;12.48;;
20411;SDS011;10365;52.578;8.138;2023-03-03T08:35:26;36.30;;;13.23;;
20411;SDS011;10365;52.578;8.138;2023-03-03T08:37:52;35.00;;;13.48;;
20411;SDS011;10365;52.578;8.138;2023-03-03T08:40:17;31.35;;;12.82;;
20411;SDS011;10365;52.578;8.138;2023-03-03T08:42:42;30.77;;;11.80;;
20411;SDS011;10365;52.578;8.138;2023-03-03T08:45:08;31.25;;;12.10;;
20411;SDS011;10365;52.578;8.138;2023-03-03T08:47:33;33.13;;;12.02;;
20411;SDS011;10365;52.578;8.138;2023-03-03T08:49:59;32.80;;;12.65;;
20411;SDS011;10365;52.578;8.138;2023-03-03T08:52:24;37.47;;;13.27;;
20411;SDS011;10365;52.578;8.138;2023-03-03T08:54:51;31.30;;;12.20;;
20411;SDS011;10365;52.578;8.138;2023-03-03T08:57:16;32.78;;;14.05;;
20411;SDS011;10365;52.578;8.138;2023-03-03T08:59:41;35.33;;;11.73;;
20411;SDS011;10365;52.578;8.138;2023-03-03T09:02:07;31.33;;;13.48;;
20411;SDS011;10365;52.578;8.138;2023-03-03T09:04:32;36.85;;;13.02;;
20411;SDS011;10365;52.578;8.138;2023-03-03T09:06:58;32.03;;;11.75;;
20411;SDS011;10365;52.578;8.138;2023-03-03T09:09:23;31.08;;;13.10;;
20411;SDS011;10365;52.578;8.138;2023-03-03T09:11:48;28.02;;;11.90;;
20411;SDS011;10365;52.578;8.138;2023-03-03T09:14:15;29.60;;;11.98;;
20411;SDS011;10365;52.578;8.138;2023-03-03T09:16:43;28.55;;;11.65;;
20411;SDS011;10365;52.578;8.138;2023-03-03T09:21:51;23.70;;;10.65;;
20411;SDS011;10365;52.578;8.138;2023-03-03T09:24:28;30.58;;;11.32;;
20411;SDS011;10365;52.578;8.138;2023-03-03T09:26:56;27.63;;;11.35;;
20411;SDS011;10365;52.578;8.138;2023-03-03T09:29:27;24.25;;;11.75;;
20411;SDS011;10365;52.578;8.138;2023-03-03T09:31:54;26.13;;;10.93;;
20411;SDS011;10365;52.578;8.138;2023-03-03T09:34:21;25.40;;;11.02;;
20411;SDS011;10365;52.578;8.138;2023-03-03T09:36:47;22.58;;;10.93;;
20411;SDS011;10365;52.578;8.138;2023-03-03T09:49:45;24.75;;;10.95;;
20411;SDS011;10365;52.578;8.138;2023-03-03T09:53:02;25.92;;;10.80;;
20411;SDS011;10365;52.578;8.138;2023-03-03T10:02:45;27.08;;;11.13;;
20411;SDS011;10365;52.578;8.138;2023-03-03T10:10:28;32.17;;;12.18;;
20411;SDS011;10365;52.578;8.138;2023-03-03T10:18:07;24.77;;;11.50;;
20411;SDS011;10365;52.578;8.138;2023-03-03T10:33:58;28.27;;;11.30;;
20411;SDS011;10365;52.578;8.138;2023-03-03T10:52:27;25.15;;;11.77;;
20411;SDS011;10365;52.578;8.138;2023-03-03T10:57:20;25.40;;;12.27;;
20411;SDS011;10365;52.578;8.138;2023-03-03T11:00:00;22.70;;;11.70;;
20411;SDS011;10365;52.578;8.138;2023-03-03T11:07:43;24.38;;;11.02;;
20411;SDS011;10365;52.578;8.138;2023-03-03T11:12:50;22.35;;;11.82;;
20411;SDS011;10365;52.578;8.138;2023-03-03T11:18:51;20.05;;;9.82;;
20411;SDS011;10365;52.578;8.138;2023-03-03T11:21:08;18.13;;;9.10;;
20411;SDS011;10365;52.578;8.138;2023-03-03T11:36:35;16.98;;;8.55;;
20411;SDS011;10365;52.578;8.138;2023-03-03T11:43:58;14.50;;;8.27;;
20411;SDS011;10365;52.578;8.138;2023-03-03T11:46:43;15.43;;;8.10;;
20411;SDS011;10365;52.578;8.138;2023-03-03T11:56:34;12.88;;;6.80;;
20411;SDS011;10365;52.578;8.138;2023-03-03T12:04:19;14.45;;;7.07;;
20411;SDS011;10365;52.578;8.138;2023-03-03T12:06:56;14.27;;;6.55;;
20411;SDS011;10365;52.578;8.138;2023-03-03T12:12:22;13.75;;;6.43;;
20411;SDS011;10365;52.578;8.138;2023-03-03T12:17:36;13.70;;;7.03;;
20411;SDS011;10365;52.578;8.138;2023-03-03T12:27:40;13.55;;;6.65;;
20411;SDS011;10365;52.578;8.138;2023-03-03T12:30:13;12.85;;;7.00;;
20411;SDS011;10365;52.578;8.138;2023-03-03T12:33:01;14.90;;;7.18;;
20411;SDS011;10365;52.578;8.138;2023-03-03T12:35:46;14.95;;;6.60;;
20411;SDS011;10365;52.578;8.138;2023-03-03T12:41:18;10.38;;;5.55;;
20411;SDS011;10365;52.578;8.138;2023-03-03T12:43:57;12.40;;;6.03;;
20411;SDS011;10365;52.578;8.138;2023-03-03T12:46:51;10.13;;;5.68;;
20411;SDS011;10365;52.578;8.138;2023-03-03T12:49:17;9.55;;;6.45;;
20411;SDS011;10365;52.578;8.138;2023-03-03T12:52:03;8.40;;;5.53;;
20411;SDS011;10365;52.578;8.138;2023-03-03T12:54:45;13.45;;;7.45;;
20411;SDS011;10365;52.578;8.138;2023-03-03T13:00:11;12.20;;;6.63;;
20411;SDS011;10365;52.578;8.138;2023-03-03T13:05:18;11.43;;;5.50;;
20411;SDS011;10365;52.578;8.138;2023-03-03T13:07:55;10.98;;;6.28;;
20411;SDS011;10365;52.578;8.138;2023-03-03T13:10:34;12.57;;;5.55;;
20411;SDS011;10365;52.578;8.138;2023-03-03T13:15:42;11.23;;;5.97;;
20411;SDS011;10365;52.578;8.138;2023-03-03T13:20:54;12.63;;;7.10;;
20411;SDS011;10365;52.578;8.138;2023-03-03T13:23:33;11.35;;;6.13;;
20411;SDS011;10365;52.578;8.138;2023-03-03T13:28:39;11.77;;;5.25;;
20411;SDS011;10365;52.578;8.138;2023-03-03T13:31:15;11.57;;;5.20;;
20411;SDS011;10365;52.578;8.138;2023-03-03T13:33:43;11.30;;;5.43;;
20411;SDS011;10365;52.578;8.138;2023-03-03T13:36:14;8.68;;;5.15;;
20411;SDS011;10365;52.578;8.138;2023-03-03T13:38:51;15.13;;;6.43;;
20411;SDS011;10365;52.578;8.138;2023-03-03T13:42:00;15.55;;;7.35;;
20411;SDS011;10365;52.578;8.138;2023-03-03T13:44:17;11.05;;;5.20;;
20411;SDS011;10365;52.578;8.138;2023-03-03T13:46:53;12.55;;;5.20;;
20411;SDS011;10365;52.578;8.138;2023-03-03T13:49:33;17.65;;;6.47;;
20411;SDS011;10365;52.578;8.138;2023-03-03T13:52:01;7.32;;;4.03;;
20411;SDS011;10365;52.578;8.138;2023-03-03T13:54:44;11.18;;;3.60;;
20411;SDS011;10365;52.578;8.138;2023-03-03T14:02:32;7.32;;;3.05;;
20411;SDS011;10365;52.578;8.138;2023-03-03T14:05:12;7.75;;;3.38;;
20411;SDS011;10365;52.578;8.138;2023-03-03T14:15:31;5.25;;;1.85;;
20411;SDS011;10365;52.578;8.138;2023-03-03T14:18:40;5.13;;;1.70;;
20411;SDS011;10365;52.578;8.138;2023-03-03T14:20:47;3.83;;;1.67;;
20411;SDS011;10365;52.578;8.138;2023-03-03T14:28:27;3.55;;;1.35;;
20411;SDS011;10365;52.578;8.138;2023-03-03T14:30:54;5.25;;;1.50;;
20411;SDS011;10365;52.578;8.138;2023-03-03T14:33:21;4.43;;;1.48;;
20411;SDS011;10365;52.578;8.138;2023-03-03T14:35:51;3.47;;;1.33;;
20411;SDS011;10365;52.578;8.138;2023-03-03T14:38:34;6.75;;;1.50;;
20411;SDS011;10365;52.578;8.138;2023-03-03T14:43:41;2.97;;;1.60;;
20411;SDS011;10365;52.578;8.138;2023-03-03T14:48:51;7.00;;;1.80;;
20411;SDS011;10365;52.578;8.138;2023-03-03T14:51:24;4.72;;;1.45;;
20411;SDS011;10365;52.578;8.138;2023-03-03T14:53:51;5.72;;;1.38;;
20411;SDS011;10365;52.578;8.138;2023-03-03T14:56:32;5.28;;;1.45;;
20411;SDS011;10365;52.578;8.138;2023-03-03T15:01:42;4.57;;;1.50;;
20411;SDS011;10365;52.578;8.138;2023-03-03T15:06:46;7.20;;;1.60;;
20411;SDS011;10365;52.578;8.138;2023-03-03T15:20:17;3.40;;;1.25;;
20411;SDS011;10365;52.578;8.138;2023-03-03T15:27:45;9.40;;;2.03;;
20411;SDS011;10365;52.578;8.138;2023-03-03T15:32:56;3.38;;;1.13;;
20411;SDS011;10365;52.578;8.138;2023-03-03T15:35:30;6.22;;;2.05;;
20411;SDS011;10365;52.578;8.138;2023-03-03T15:38:14;8.07;;;2.30;;
20411;SDS011;10365;52.578;8.138;2023-03-03T15:40:45;4.07;;;1.70;;
20411;SDS011;10365;52.578;8.138;2023-03-03T15:45:53;5.22;;;1.42;;
20411;SDS011;10365;52.578;8.138;2023-03-03T15:51:05;5.50;;;1.80;;
20411;SDS011;10365;52.578;8.138;2023-03-03T15:58:35;3.72;;;1.65;;
20411;SDS011;10365;52.578;8.138;2023-03-03T16:03:56;4.82;;;2.58;;
20411;SDS011;10365;52.578;8.138;2023-03-03T16:06:27;11.77;;;4.47;;
20411;SDS011;10365;52.578;8.138;2023-03-03T16:08:57;6.05;;;2.83;;
20411;SDS011;10365;52.578;8.138;2023-03-03T16:11:32;7.78;;;3.70;;
20411;SDS011;10365;52.578;8.138;2023-03-03T16:14:06;4.97;;;2.25;;
20411;SDS011;10365;52.578;8.138;2023-03-03T16:19:23;6.47;;;2.97;;
20411;SDS011;10365;52.578;8.138;2023-03-03T16:22:10;6.70;;;2.42;;
20411;SDS011;10365;52.578;8.138;2023-03-03T16:32:04;10.93;;;4.03;;
20411;SDS011;10365;52.578;8.138;2023-03-03T16:34:32;12.77;;;5.10;;
20411;SDS011;10365;52.578;8.138;2023-03-03T16:37:03;10.50;;;3.42;;
20411;SDS011;10365;52.578;8.138;2023-03-03T16:39:40;5.85;;;2.15;;
20411;SDS011;10365;52.578;8.138;2023-03-03T16:52:19;5.18;;;2.22;;
20411;SDS011;10365;52.578;8.138;2023-03-03T17:03:03;4.68;;;2.17;;
20411;SDS011;10365;52.578;8.138;2023-03-03T17:20:38;7.85;;;2.47;;
20411;SDS011;10365;52.578;8.138;2023-03-03T17:38:40;7.68;;;2.22;;
20411;SDS011;10365;52.578;8.138;2023-03-03T17:45:59;6.82;;;2.25;;
20411;SDS011;10365;52.578;8.138;2023-03-03T17:56:17;89.68;;;37.17;;
20411;SDS011;10365;52.578;8.138;2023-03-03T18:11:53;11.82;;;5.57;;
20411;SDS011;10365;52.578;8.138;2023-03-03T18:22:16;12.57;;;3.83;;
20411;SDS011;10365;52.578;8.138;2023-03-03T18:33:18;8.02;;;1.75;;
20411;SDS011;10365;52.578;8.138;2023-03-03T18:35:40;14.20;;;3.22;;
20411;SDS011;10365;52.578;8.138;2023-03-03T18:45:57;17.92;;;3.00;;
20411;SDS011;10365;52.578;8.138;2023-03-03T18:48:43;16.50;;;2.95;;
20411;SDS011;10365;52.578;8.138;2023-03-03T18:51:08;15.57;;;2.83;;
20411;SDS011;10365;52.578;8.138;2023-03-03T18:53:33;10.40;;;2.22;;
20411;SDS011;10365;52.578;8.138;2023-03-03T18:56:00;14.38;;;2.08;;
20411;SDS011;10365;52.578;8.138;2023-03-03T18:58:39;13.02;;;2.22;;
20411;SDS011;10365;52.578;8.138;2023-03-03T19:06:27;21.63;;;5.25;;
20411;SDS011;10365;52.578;8.138;2023-03-03T19:08:54;27.33;;;3.92;;
20411;SDS011;10365;52.578;8.138;2023-03-03T19:14:13;18.38;;;3.33;;
20411;SDS011;10365;52.578;8.138;2023-03-03T19:16:42;18.50;;;4.10;;
20411;SDS011;10365;52.578;8.138;2023-03-03T19:19:11;26.70;;;6.05;;
20411;SDS011;10365;52.578;8.138;2023-03-03T19:21:37;22.35;;;5.72;;
20411;SDS011;10365;52.578;8.138;2023-03-03T19:34:44;22.42;;;3.75;;
20411;SDS011;10365;52.578;8.138;2023-03-03T19:57:49;14.13;;;3.22;;
20411;SDS011;10365;52.578;8.138;2023-03-03T20:03:16;16.25;;;4.63;;
20411;SDS011;10365;52.578;8.138;2023-03-03T20:08:33;20.70;;;4.97;;
20411;SDS011;10365;52.578;8.138;2023-03-03T20:11:04;25.23;;;8.70;;
20411;SDS011;10365;52.578;8.138;2023-03-03T20:13:53;21.92;;;6.45;;
20411;SDS011;10365;52.578;8.138;2023-03-03T20:16:34;23.75;;;4.00;;
20411;SDS011;10365;52.578;8.138;2023-03-03T20:19:23;19.52;;;4.25;;
20411;SDS011;10365;52.578;8.138;2023-03-03T20:22:06;12.27;;;2.70;;
20411;SDS011;10365;52.578;8.138;2023-03-03T20:27:18;9.63;;;2.88;;
20411;SDS011;10365;52.578;8.138;2023-03-03T20:45:21;15.70;;;3.20;;
20411;SDS011;10365;52.578;8.138;2023-03-03T20:53:18;15.50;;;3.17;;
20411;SDS011;10365;52.578;8.138;2023-03-03T21:01:09;23.25;;;3.25;;
20411;SDS011;10365;52.578;8.138;2023-03-03T21:03:38;18.33;;;2.95;;
20411;SDS011;10365;52.578;8.138;2023-03-03T21:06:04;29.05;;;4.70;;
20411;SDS011;10365;52.578;8.138;2023-03-03T21:11:08;20.63;;;3.80;;
20411;SDS011;10365;52.578;8.138;2023-03-03T21:13:37;20.55;;;4.15;;
20411;SDS011;10365;52.578;8.138;2023-03-03T21:18:36;18.20;;;3.55;;
20411;SDS011;10365;52.578;8.138;2023-03-03T21:21:02;16.70;;;3.72;;
20411;SDS011;10365;52.578;8.138;2023-03-03T21:23:27;23.42;;;3.78;;
20411;SDS011;10365;52.578;8.138;2023-03-03T21:25:53;23.50;;;4.28;;
20411;SDS011;10365;52.578;8.138;2023-03-03T21:28:37;23.80;;;7.35;;
20411;SDS011;10365;52.578;8.138;2023-03-03T21:36:05;22.05;;;4.32;;